RKTU/CHN METAR and TAF weather

Enter ICAO airport designator
Station Type Date Time Source
RKTU METAR 2020/07/02 18:00 UTC NOAA

RKTU 021800Z 07001KT CAVOK 20/19 Q1012


Station Type Date Time Source
RKTU Decoded METAR 2020/07/02 18:00 UTC NOAA

Chongju Ab, Korea, South (RKTU) 36-42N 127-30E 66M
Jul 02, 2020 - 02:00 PM EDT / 2020.07.02 1800 UTC
Wind: from the ENE (070 degrees) at 1 MPH (1 KT):0
Visibility: greater than 7 mile(s):0
Temperature: 68 F (20 C)
Dew Point: 66 F (19 C)
Relative Humidity: 93%
Pressure (altimeter): 29.88 in. Hg (1012 hPa)
ob: RKTU 021800Z 07001KT CAVOK 20/19 Q1012
cycle: 18

Station Type Date Time Source
RKTU TAF 2020/07/02 18:09 UTC NOAA

TAF RKTU 021700Z 0218/0324 18006KT 9999 SCT030 BKN200 TX29/0306Z TN18/0321Z

Example: see airport list